createdAt,value
2022-11-30T00:00:04.980Z,995.44
2022-11-30T00:01:04.873Z,995.43
2022-11-30T00:02:05.029Z,995.45
2022-11-30T00:03:05.061Z,995.45
2022-11-30T00:04:04.851Z,995.44
2022-11-30T00:05:04.851Z,995.41
2022-11-30T00:06:04.824Z,995.39
2022-11-30T00:07:04.836Z,995.38
2022-11-30T00:08:04.793Z,995.42
2022-11-30T00:09:04.780Z,995.38
2022-11-30T00:10:04.777Z,995.41
2022-11-30T00:12:04.737Z,995.38
2022-11-30T00:13:04.763Z,995.43
2022-11-30T00:15:04.727Z,995.42
2022-11-30T00:16:04.734Z,995.42
2022-11-30T00:17:04.730Z,995.41
2022-11-30T00:18:04.681Z,995.44
2022-11-30T00:19:04.703Z,995.42
2022-11-30T00:20:04.653Z,995.42
2022-11-30T00:21:04.646Z,995.41
2022-11-30T00:22:04.622Z,995.42
2022-11-30T00:23:04.655Z,995.42
2022-11-30T00:24:04.720Z,995.41
2022-11-30T00:25:04.710Z,995.41
2022-11-30T00:26:04.575Z,995.43
2022-11-30T00:27:04.602Z,995.41
2022-11-30T00:28:04.572Z,995.39
2022-11-30T00:29:04.613Z,995.39
2022-11-30T00:30:04.559Z,995.39
2022-11-30T00:31:04.679Z,995.37
2022-11-30T00:32:04.543Z,995.36
2022-11-30T00:33:04.511Z,995.37
2022-11-30T00:34:04.500Z,995.39
2022-11-30T00:35:04.465Z,995.38
2022-11-30T00:36:04.511Z,995.42
2022-11-30T00:37:04.451Z,995.43
2022-11-30T00:38:04.444Z,995.44
2022-11-30T00:39:04.471Z,995.43
2022-11-30T00:40:04.436Z,995.43
2022-11-30T00:41:04.420Z,995.46
2022-11-30T00:42:04.461Z,995.46
2022-11-30T00:43:04.412Z,995.44
2022-11-30T00:44:04.410Z,995.45
2022-11-30T00:45:04.382Z,995.46
2022-11-30T00:46:04.444Z,995.47
2022-11-30T00:47:04.348Z,995.46
2022-11-30T00:48:04.408Z,995.42
2022-11-30T00:49:04.398Z,995.45
2022-11-30T00:50:04.307Z,995.45
2022-11-30T00:51:04.293Z,995.47
2022-11-30T00:52:04.320Z,995.44
2022-11-30T00:53:04.264Z,995.48
2022-11-30T00:54:04.310Z,995.45
2022-11-30T00:55:04.616Z,995.47
2022-11-30T00:56:04.237Z,995.47
2022-11-30T00:57:04.264Z,995.45
2022-11-30T00:58:04.202Z,995.46
2022-11-30T00:59:04.190Z,995.42
2022-11-30T01:00:04.178Z,995.43
2022-11-30T01:01:04.201Z,995.46
2022-11-30T01:02:04.230Z,995.46
2022-11-30T01:03:04.207Z,995.49
2022-11-30T01:04:04.190Z,995.45
2022-11-30T01:05:04.134Z,995.53
2022-11-30T01:06:04.128Z,995.50
2022-11-30T01:07:04.091Z,995.49
2022-11-30T01:08:04.093Z,995.55
2022-11-30T01:10:04.062Z,995.60
2022-11-30T01:11:04.104Z,995.59
2022-11-30T01:12:04.045Z,995.65
2022-11-30T01:13:04.028Z,995.66
2022-11-30T01:14:04.036Z,995.65
2022-11-30T01:15:04.009Z,995.66
2022-11-30T01:16:04.054Z,995.64
2022-11-30T01:17:03.982Z,995.65
2022-11-30T01:18:03.986Z,995.70
2022-11-30T01:19:03.971Z,995.63
2022-11-30T01:20:03.978Z,995.60
2022-11-30T01:22:03.928Z,995.61
2022-11-30T01:23:03.941Z,995.57
2022-11-30T01:24:03.913Z,995.54
2022-11-30T01:25:03.930Z,995.56
2022-11-30T01:26:03.887Z,995.59
2022-11-30T01:27:03.858Z,995.58
2022-11-30T01:28:03.879Z,995.59
2022-11-30T01:29:03.837Z,995.59
2022-11-30T01:30:03.845Z,995.59
2022-11-30T01:31:03.936Z,995.59
2022-11-30T01:32:03.810Z,995.57
2022-11-30T01:33:03.859Z,995.58
2022-11-30T01:34:03.781Z,995.60
2022-11-30T01:35:03.779Z,995.58
2022-11-30T01:36:03.785Z,995.62
2022-11-30T01:37:03.737Z,995.61
2022-11-30T01:38:03.763Z,995.56
2022-11-30T01:39:03.770Z,995.61
2022-11-30T01:40:03.720Z,995.57
2022-11-30T01:41:03.765Z,995.58
2022-11-30T01:42:03.684Z,995.61
2022-11-30T01:43:03.758Z,995.60
2022-11-30T01:44:03.871Z,995.60
2022-11-30T01:45:03.695Z,995.63
2022-11-30T01:46:03.932Z,995.64
2022-11-30T01:47:03.679Z,995.69
2022-11-30T01:48:03.674Z,995.66
2022-11-30T01:49:03.624Z,995.69
2022-11-30T01:50:03.599Z,995.69
2022-11-30T01:51:03.692Z,995.65
2022-11-30T01:52:03.599Z,995.66
2022-11-30T01:53:03.556Z,995.65
2022-11-30T01:54:03.612Z,995.66
2022-11-30T01:55:03.546Z,995.63
2022-11-30T01:56:03.532Z,995.65
2022-11-30T01:57:03.590Z,995.65
2022-11-30T01:58:03.503Z,995.67
2022-11-30T01:59:03.537Z,995.64
2022-11-30T02:00:03.492Z,995.63
2022-11-30T02:01:03.498Z,995.63
2022-11-30T02:02:03.508Z,995.67
2022-11-30T02:03:03.486Z,995.62
2022-11-30T02:04:03.491Z,995.67
2022-11-30T02:05:03.436Z,995.64
2022-11-30T02:06:03.436Z,995.66
2022-11-30T02:07:03.461Z,995.67
2022-11-30T02:09:03.388Z,995.67
2022-11-30T02:10:03.408Z,995.70
2022-11-30T02:11:03.369Z,995.68
2022-11-30T02:12:03.343Z,995.72
2022-11-30T02:13:03.426Z,995.69
2022-11-30T02:14:03.324Z,995.69
2022-11-30T02:15:03.324Z,995.68
2022-11-30T02:16:03.333Z,995.65
2022-11-30T02:17:03.297Z,995.68
2022-11-30T02:18:03.290Z,995.61
2022-11-30T02:20:03.261Z,995.56
2022-11-30T02:21:03.239Z,995.56
2022-11-30T02:22:03.229Z,995.63
2022-11-30T02:23:03.262Z,995.61
2022-11-30T02:24:03.203Z,995.57
2022-11-30T02:25:03.211Z,995.61
2022-11-30T02:26:03.210Z,995.59
2022-11-30T02:27:03.176Z,995.61
2022-11-30T02:28:03.163Z,995.59
2022-11-30T02:29:03.146Z,995.56
2022-11-30T02:30:03.134Z,995.60
2022-11-30T02:31:03.223Z,995.58
2022-11-30T02:32:03.196Z,995.55
2022-11-30T02:33:03.106Z,995.57
2022-11-30T02:34:03.070Z,995.52
2022-11-30T02:35:03.077Z,995.49
2022-11-30T02:36:03.257Z,995.51
2022-11-30T02:37:03.074Z,995.48
2022-11-30T02:38:03.041Z,995.49
2022-11-30T02:39:03.010Z,995.51
2022-11-30T02:40:03.027Z,995.52
2022-11-30T02:41:03.054Z,995.55
2022-11-30T02:42:03.182Z,995.56
2022-11-30T02:43:03.063Z,995.55
2022-11-30T02:44:02.972Z,995.55
2022-11-30T02:45:03.007Z,995.59
2022-11-30T02:46:03.024Z,995.57
2022-11-30T02:47:02.923Z,995.57
2022-11-30T02:48:02.956Z,995.57
2022-11-30T02:49:02.897Z,995.60
2022-11-30T02:50:02.874Z,995.62
2022-11-30T02:51:02.873Z,995.61
2022-11-30T02:52:02.872Z,995.58
2022-11-30T02:53:02.862Z,995.57
2022-11-30T02:54:02.847Z,995.59
2022-11-30T02:55:02.939Z,995.57
2022-11-30T02:56:02.841Z,995.57
2022-11-30T02:57:02.831Z,995.59
2022-11-30T02:58:02.789Z,995.55
2022-11-30T02:59:02.785Z,995.57
2022-11-30T03:00:02.786Z,995.59
2022-11-30T03:01:02.769Z,995.58
2022-11-30T03:02:02.762Z,995.62
2022-11-30T03:03:03.054Z,995.57
2022-11-30T03:07:02.797Z,995.62
2022-11-30T03:08:02.947Z,995.62
2022-11-30T03:09:02.700Z,995.61
2022-11-30T03:10:02.654Z,995.61
2022-11-30T03:11:02.651Z,995.62
2022-11-30T03:12:02.684Z,995.67
2022-11-30T03:13:02.671Z,995.65
2022-11-30T03:14:02.594Z,995.65
2022-11-30T03:15:02.597Z,995.65
2022-11-30T03:16:02.693Z,995.70
2022-11-30T03:17:02.591Z,995.68
2022-11-30T03:18:02.593Z,995.69
2022-11-30T03:19:02.536Z,995.70
2022-11-30T03:20:02.585Z,995.69
2022-11-30T03:21:02.568Z,995.67
2022-11-30T03:22:02.507Z,995.70
2022-11-30T03:23:02.574Z,995.70
2022-11-30T03:24:02.486Z,995.72
2022-11-30T03:25:02.741Z,995.76
2022-11-30T03:26:02.548Z,995.78
2022-11-30T03:27:02.459Z,995.77
2022-11-30T03:28:02.482Z,995.76
2022-11-30T03:29:02.492Z,995.73
2022-11-30T03:30:02.427Z,995.81
2022-11-30T03:31:02.530Z,995.78
2022-11-30T03:32:02.438Z,995.79
2022-11-30T03:33:02.516Z,995.81
2022-11-30T03:34:02.495Z,995.79
2022-11-30T03:35:02.406Z,995.80
2022-11-30T03:36:02.385Z,995.85
2022-11-30T03:37:02.544Z,995.83
2022-11-30T03:38:02.350Z,995.87
2022-11-30T03:39:02.324Z,995.84
2022-11-30T03:40:02.293Z,995.88
2022-11-30T03:41:02.325Z,995.88
2022-11-30T03:42:02.326Z,995.85
2022-11-30T03:43:02.279Z,995.87
2022-11-30T03:44:02.248Z,995.88
2022-11-30T03:45:02.263Z,995.86
2022-11-30T03:46:02.329Z,995.92
2022-11-30T03:47:02.258Z,995.92
2022-11-30T03:48:02.224Z,995.93
2022-11-30T03:49:02.173Z,995.94
2022-11-30T03:50:02.192Z,995.92
2022-11-30T03:51:02.178Z,995.94
2022-11-30T03:52:02.180Z,995.91
2022-11-30T03:53:02.146Z,995.95
2022-11-30T03:54:02.137Z,995.93
2022-11-30T03:55:02.148Z,995.97
2022-11-30T03:56:02.120Z,995.96
2022-11-30T03:57:02.088Z,995.96
2022-11-30T03:58:02.070Z,995.96
2022-11-30T03:59:02.083Z,995.94
2022-11-30T04:00:02.048Z,996.00
2022-11-30T04:01:02.110Z,995.97
2022-11-30T04:02:02.293Z,995.97
2022-11-30T04:04:02.037Z,995.97
2022-11-30T04:05:01.987Z,995.96
2022-11-30T04:06:01.969Z,995.95
2022-11-30T04:07:01.962Z,995.95
2022-11-30T04:08:01.966Z,995.94
2022-11-30T04:09:01.970Z,995.98
2022-11-30T04:10:08.133Z,995.95
2022-11-30T04:11:01.926Z,995.94
2022-11-30T04:12:01.944Z,995.99
2022-11-30T04:13:01.971Z,995.96
2022-11-30T04:14:02.095Z,995.97
2022-11-30T04:15:01.873Z,995.96
2022-11-30T04:16:01.965Z,995.97
2022-11-30T04:17:01.909Z,995.94
2022-11-30T04:18:01.894Z,995.94
2022-11-30T04:19:01.834Z,995.94
2022-11-30T04:20:01.818Z,995.93
2022-11-30T04:21:01.852Z,995.90
2022-11-30T04:22:01.791Z,995.91
2022-11-30T04:23:01.799Z,995.94
2022-11-30T04:24:01.847Z,995.95
2022-11-30T04:25:01.828Z,995.96
2022-11-30T04:26:01.754Z,995.93
2022-11-30T04:27:01.732Z,995.96
2022-11-30T04:28:01.739Z,995.94
2022-11-30T04:29:04.483Z,995.98
2022-11-30T04:30:01.720Z,995.96
2022-11-30T04:31:01.699Z,995.93
2022-11-30T04:32:01.871Z,995.97
2022-11-30T04:33:01.690Z,996.00
2022-11-30T04:34:01.640Z,996.01
2022-11-30T04:35:01.683Z,996.00
2022-11-30T04:36:01.635Z,995.98
2022-11-30T04:37:01.682Z,996.00
2022-11-30T04:38:01.598Z,996.00
2022-11-30T04:39:01.598Z,996.01
2022-11-30T04:40:01.630Z,996.00
2022-11-30T04:41:01.564Z,996.03
2022-11-30T04:42:01.567Z,995.97
2022-11-30T04:43:01.601Z,996.00
2022-11-30T04:44:01.592Z,995.99
2022-11-30T04:45:01.522Z,996.00
2022-11-30T04:46:01.498Z,995.96
2022-11-30T04:47:01.512Z,995.98
2022-11-30T04:48:01.503Z,995.99
2022-11-30T04:49:01.510Z,995.99
2022-11-30T04:50:01.452Z,996.03
2022-11-30T04:51:01.454Z,996.00
2022-11-30T04:52:01.481Z,995.98
2022-11-30T04:53:01.443Z,996.02
2022-11-30T04:54:01.485Z,995.99
2022-11-30T04:55:01.400Z,996.03
2022-11-30T04:56:01.418Z,996.03
2022-11-30T04:57:01.645Z,996.04
2022-11-30T04:58:01.386Z,996.02
2022-11-30T05:00:01.359Z,996.00
2022-11-30T05:01:01.419Z,995.99
2022-11-30T05:02:01.344Z,995.98
2022-11-30T05:03:01.369Z,996.00
2022-11-30T05:04:01.408Z,996.02
2022-11-30T05:05:01.288Z,996.01
2022-11-30T05:06:01.331Z,996.02
2022-11-30T05:07:01.263Z,996.02
2022-11-30T05:08:01.358Z,996.02
2022-11-30T05:09:01.297Z,995.98
2022-11-30T05:10:01.207Z,995.95
2022-11-30T05:11:01.250Z,995.97
2022-11-30T05:12:01.264Z,995.98
2022-11-30T05:13:01.395Z,995.98
2022-11-30T05:14:01.166Z,995.95
2022-11-30T05:15:01.225Z,995.99
2022-11-30T05:16:01.218Z,996.04
2022-11-30T05:17:01.149Z,996.04
2022-11-30T05:18:01.152Z,996.07
2022-11-30T05:19:01.101Z,996.09
2022-11-30T05:20:01.316Z,996.08
2022-11-30T05:21:01.128Z,996.11
2022-11-30T05:22:01.084Z,996.13
2022-11-30T05:23:01.136Z,996.17
2022-11-30T05:24:01.274Z,996.17
2022-11-30T05:25:01.060Z,996.17
2022-11-30T05:26:01.018Z,996.18
2022-11-30T05:27:01.007Z,996.15
2022-11-30T05:28:01.034Z,996.11
2022-11-30T05:29:01.042Z,996.16
2022-11-30T05:30:01.044Z,996.13
2022-11-30T05:31:01.140Z,996.13
2022-11-30T05:32:01.234Z,996.15
2022-11-30T05:33:00.944Z,996.17
2022-11-30T05:34:01.004Z,996.19
2022-11-30T05:35:00.941Z,996.24
2022-11-30T05:36:04.550Z,996.26
2022-11-30T05:37:01.037Z,996.28
2022-11-30T05:38:00.920Z,996.27
2022-11-30T05:39:00.873Z,996.27
2022-11-30T05:40:00.903Z,996.27
2022-11-30T05:41:00.846Z,996.29
2022-11-30T05:42:00.855Z,996.28
2022-11-30T05:43:00.837Z,996.25
2022-11-30T05:44:00.806Z,996.27
2022-11-30T05:45:01.275Z,996.28
2022-11-30T05:46:00.804Z,996.31
2022-11-30T05:47:00.902Z,996.33
2022-11-30T05:48:00.796Z,996.37
2022-11-30T05:49:00.760Z,996.35
2022-11-30T05:50:00.928Z,996.42
2022-11-30T05:51:00.741Z,996.39
2022-11-30T05:52:00.725Z,996.39
2022-11-30T05:53:00.730Z,996.41
2022-11-30T05:54:00.734Z,996.38
2022-11-30T05:55:00.685Z,996.36
2022-11-30T05:56:00.673Z,996.40
2022-11-30T05:57:00.837Z,996.39
2022-11-30T05:58:00.652Z,996.39
2022-11-30T05:59:00.625Z,996.39
2022-11-30T06:00:00.625Z,996.39
2022-11-30T06:01:00.635Z,996.40
2022-11-30T06:02:00.728Z,996.41
2022-11-30T06:03:00.893Z,996.43
2022-11-30T06:04:04.643Z,996.42
2022-11-30T06:05:00.585Z,996.42
2022-11-30T06:06:00.591Z,996.39
2022-11-30T06:07:00.652Z,996.42
2022-11-30T06:08:00.887Z,996.43
2022-11-30T06:09:00.555Z,996.45
2022-11-30T06:10:00.498Z,996.43
2022-11-30T06:11:00.497Z,996.45
2022-11-30T06:12:00.471Z,996.47
2022-11-30T06:13:00.478Z,996.47
2022-11-30T06:14:00.463Z,996.49
2022-11-30T06:15:00.420Z,996.52
2022-11-30T06:16:00.539Z,996.53
2022-11-30T06:17:00.414Z,996.52
2022-11-30T06:18:00.397Z,996.48
2022-11-30T06:19:00.386Z,996.54
2022-11-30T06:20:00.389Z,996.49
2022-11-30T06:21:00.597Z,996.46
2022-11-30T06:22:00.337Z,996.48
2022-11-30T06:23:00.343Z,996.48
2022-11-30T06:24:00.315Z,996.44
2022-11-30T06:25:00.554Z,996.45
2022-11-30T06:26:00.296Z,996.47
2022-11-30T06:27:00.327Z,996.47
2022-11-30T06:28:00.265Z,996.46
2022-11-30T06:29:00.279Z,996.43
2022-11-30T06:30:00.253Z,996.44
2022-11-30T06:31:00.275Z,996.46
2022-11-30T06:32:00.321Z,996.44
2022-11-30T06:33:00.214Z,996.47
2022-11-30T06:34:00.188Z,996.46
2022-11-30T06:35:00.200Z,996.48
2022-11-30T06:36:00.212Z,996.49
2022-11-30T06:37:00.177Z,996.48
2022-11-30T06:38:00.141Z,996.50
2022-11-30T06:39:00.331Z,996.55
2022-11-30T06:40:08.175Z,996.51
2022-11-30T06:41:00.131Z,996.48
2022-11-30T06:42:00.100Z,996.47
2022-11-30T06:43:00.086Z,996.47
2022-11-30T06:44:00.105Z,996.52
2022-11-30T06:45:00.071Z,996.53
2022-11-30T06:46:00.175Z,996.57
2022-11-30T06:47:00.042Z,996.55
2022-11-30T06:48:00.072Z,996.59
2022-11-30T06:49:00.032Z,996.57
2022-11-30T06:50:00.001Z,996.55
2022-11-30T06:50:59.977Z,996.58
2022-11-30T06:52:00.175Z,996.56
2022-11-30T06:54:00.155Z,996.57
2022-11-30T06:55:00.007Z,996.51
2022-11-30T06:55:59.925Z,996.52
2022-11-30T06:56:59.922Z,996.54
2022-11-30T06:57:59.917Z,996.56
2022-11-30T06:58:59.892Z,996.53
2022-11-30T06:59:59.922Z,996.54
2022-11-30T07:00:59.904Z,996.62
2022-11-30T07:02:06.005Z,996.59
2022-11-30T07:02:59.859Z,996.64
2022-11-30T07:03:59.991Z,996.66
2022-11-30T07:05:00.028Z,996.67
2022-11-30T07:05:59.802Z,996.69
2022-11-30T07:06:59.783Z,996.69
2022-11-30T07:07:59.837Z,996.71
2022-11-30T07:08:59.793Z,996.71
2022-11-30T07:09:59.809Z,996.73
2022-11-30T07:10:59.755Z,996.73
2022-11-30T07:11:59.733Z,996.68
2022-11-30T07:12:59.743Z,996.66
2022-11-30T07:13:59.727Z,996.68
2022-11-30T07:14:59.688Z,996.65
2022-11-30T07:15:59.710Z,996.69
2022-11-30T07:16:59.724Z,996.68
2022-11-30T07:17:59.661Z,996.71
2022-11-30T07:18:59.637Z,996.68
2022-11-30T07:19:59.640Z,996.68
2022-11-30T07:20:59.661Z,996.70
2022-11-30T07:21:59.607Z,996.73
2022-11-30T07:25:47.103Z,996.77
2022-11-30T07:26:47.084Z,996.77
2022-11-30T07:27:47.264Z,996.75
2022-11-30T07:28:47.065Z,996.75
2022-11-30T07:29:47.046Z,996.75
2022-11-30T07:30:47.026Z,996.72
2022-11-30T07:31:47.059Z,996.71
2022-11-30T07:32:46.997Z,996.72
2022-11-30T07:33:46.991Z,996.68
2022-11-30T07:34:47.272Z,996.74
2022-11-30T07:35:46.968Z,996.71
2022-11-30T07:36:46.949Z,996.70
2022-11-30T07:37:46.948Z,996.72
2022-11-30T07:38:46.943Z,996.71
2022-11-30T07:39:46.929Z,996.73
2022-11-30T07:40:47.115Z,996.69
2022-11-30T07:41:46.894Z,996.72
2022-11-30T07:42:46.887Z,996.71
2022-11-30T07:43:46.876Z,996.68
2022-11-30T07:44:47.318Z,996.72
2022-11-30T07:45:47.089Z,996.73
2022-11-30T07:46:46.834Z,996.72
2022-11-30T07:47:46.833Z,996.75
2022-11-30T07:48:46.805Z,996.75
2022-11-30T07:50:46.816Z,996.73
2022-11-30T07:51:46.968Z,996.72
2022-11-30T07:52:46.759Z,996.74
2022-11-30T07:53:46.763Z,996.73
2022-11-30T07:54:47.239Z,996.75
2022-11-30T07:55:46.720Z,996.75
2022-11-30T07:56:46.722Z,996.75
2022-11-30T07:57:46.699Z,996.75
2022-11-30T07:58:46.683Z,996.78
2022-11-30T07:59:46.864Z,996.78
2022-11-30T08:00:46.853Z,996.76
2022-11-30T08:01:46.883Z,996.78
2022-11-30T08:02:46.646Z,996.77
2022-11-30T08:03:46.645Z,996.75
2022-11-30T08:04:47.192Z,996.78
2022-11-30T08:05:46.619Z,996.80
2022-11-30T08:06:46.588Z,996.78
2022-11-30T08:07:46.615Z,996.84
2022-11-30T08:08:46.798Z,996.80
2022-11-30T08:09:46.566Z,996.85
2022-11-30T08:10:46.597Z,996.85
2022-11-30T08:11:46.548Z,996.88
2022-11-30T08:12:46.569Z,996.90
2022-11-30T08:13:46.508Z,996.92
2022-11-30T08:15:18.236Z,996.90
2022-11-30T08:15:46.484Z,996.94
2022-11-30T08:16:46.532Z,996.90
2022-11-30T08:17:46.486Z,996.94
2022-11-30T08:18:46.456Z,996.96
2022-11-30T08:19:46.454Z,996.93
2022-11-30T08:22:46.415Z,996.93
2022-11-30T08:23:46.444Z,996.94
2022-11-30T08:24:46.741Z,996.94
2022-11-30T08:25:46.448Z,996.95
2022-11-30T08:26:46.345Z,996.95
2022-11-30T08:27:46.349Z,996.95
2022-11-30T08:28:46.347Z,996.96
2022-11-30T08:29:46.338Z,996.98
2022-11-30T08:30:46.362Z,997.00
2022-11-30T08:31:46.292Z,996.98
2022-11-30T08:32:46.298Z,996.99
2022-11-30T08:33:46.281Z,996.98
2022-11-30T08:34:46.686Z,997.01
2022-11-30T08:35:46.280Z,996.99
2022-11-30T08:36:48.884Z,996.98
2022-11-30T08:37:46.441Z,996.98
2022-11-30T08:38:46.255Z,997.01
2022-11-30T08:39:46.433Z,997.00
2022-11-30T08:40:46.187Z,997.00
2022-11-30T08:41:46.185Z,997.03
2022-11-30T08:42:46.152Z,997.06
2022-11-30T08:43:46.141Z,997.06
2022-11-30T08:44:46.144Z,997.06
2022-11-30T08:45:46.168Z,997.04
2022-11-30T08:46:53.424Z,997.04
2022-11-30T08:47:46.119Z,997.09
2022-11-30T08:48:46.308Z,997.07
2022-11-30T08:49:46.281Z,997.10
2022-11-30T08:50:46.089Z,997.09
2022-11-30T08:52:46.049Z,997.09
2022-11-30T08:53:46.263Z,997.09
2022-11-30T08:54:46.777Z,997.10
2022-11-30T08:55:46.024Z,997.09
2022-11-30T08:56:46.009Z,997.09
2022-11-30T08:57:45.998Z,997.16
2022-11-30T08:58:45.978Z,997.14
2022-11-30T08:59:46.029Z,997.16
2022-11-30T09:00:46.018Z,997.19
2022-11-30T09:01:45.939Z,997.15
2022-11-30T09:02:45.985Z,997.18
2022-11-30T09:03:45.928Z,997.20
2022-11-30T09:04:45.935Z,997.16
2022-11-30T09:05:45.927Z,997.17
2022-11-30T09:06:45.907Z,997.15
2022-11-30T09:07:45.972Z,997.18
2022-11-30T09:08:45.869Z,997.22
2022-11-30T09:09:45.851Z,997.20
2022-11-30T09:10:45.842Z,997.19
2022-11-30T09:27:45.635Z,997.38
2022-11-30T09:28:45.635Z,997.40
2022-11-30T09:29:45.619Z,997.38
2022-11-30T09:30:45.708Z,997.37
2022-11-30T09:31:45.600Z,997.37
2022-11-30T09:32:45.589Z,997.38
2022-11-30T09:33:45.564Z,997.34
2022-11-30T09:34:46.306Z,997.36
2022-11-30T09:35:45.745Z,997.33
2022-11-30T09:36:45.537Z,997.35
2022-11-30T09:37:45.508Z,997.37
2022-11-30T09:38:45.500Z,997.38
2022-11-30T09:39:45.502Z,997.35
2022-11-30T09:40:45.485Z,997.37
2022-11-30T09:41:45.458Z,997.38
2022-11-30T09:42:45.470Z,997.41
2022-11-30T09:43:45.470Z,997.42
2022-11-30T09:44:45.844Z,997.40
2022-11-30T09:45:45.551Z,997.41
2022-11-30T09:46:45.416Z,997.39
2022-11-30T09:47:45.600Z,997.43
2022-11-30T09:48:45.383Z,997.42
2022-11-30T09:49:45.414Z,997.41
2022-11-30T09:50:45.359Z,997.41
2022-11-30T09:51:45.369Z,997.40
2022-11-30T09:52:45.382Z,997.38
2022-11-30T09:53:45.334Z,997.37
2022-11-30T09:54:45.666Z,997.39
2022-11-30T09:55:45.316Z,997.37
2022-11-30T09:56:45.333Z,997.38
2022-11-30T09:57:45.344Z,997.42
2022-11-30T09:58:45.258Z,997.43
2022-11-30T09:59:45.290Z,997.42
2022-11-30T10:00:45.254Z,997.40
2022-11-30T10:01:46.237Z,997.39
2022-11-30T10:02:45.391Z,997.37
2022-11-30T10:03:45.557Z,997.40
2022-11-30T10:04:45.695Z,997.40
2022-11-30T10:05:45.202Z,997.36
2022-11-30T10:06:45.180Z,997.36
2022-11-30T10:07:45.206Z,997.34
2022-11-30T10:08:50.483Z,997.34
2022-11-30T10:09:57.572Z,997.34
2022-11-30T10:10:45.129Z,997.30
2022-11-30T10:11:45.139Z,997.33
2022-11-30T10:12:45.178Z,997.32
2022-11-30T10:13:45.091Z,997.32
2022-11-30T10:14:45.581Z,997.30
2022-11-30T10:16:45.085Z,997.29
2022-11-30T10:17:45.043Z,997.32
2022-11-30T10:18:45.422Z,997.32
2022-11-30T10:19:45.029Z,997.31
2022-11-30T10:20:45.013Z,997.34
2022-11-30T10:21:45.013Z,997.34
2022-11-30T10:22:44.999Z,997.30
2022-11-30T10:23:44.983Z,997.34
2022-11-30T10:24:45.630Z,997.32
2022-11-30T10:25:44.967Z,997.31
2022-11-30T10:26:44.932Z,997.32
2022-11-30T10:27:44.926Z,997.34
2022-11-30T10:28:47.431Z,997.30
2022-11-30T10:29:44.887Z,997.31
2022-11-30T10:30:44.951Z,997.30
2022-11-30T10:31:45.096Z,997.30
2022-11-30T10:32:44.993Z,997.28
2022-11-30T10:33:44.884Z,997.32
2022-11-30T10:34:45.353Z,997.31
2022-11-30T10:35:45.045Z,997.27
2022-11-30T10:36:44.817Z,997.27
2022-11-30T10:37:44.810Z,997.29
2022-11-30T10:38:44.809Z,997.30
2022-11-30T10:39:44.791Z,997.27
2022-11-30T10:40:44.788Z,997.32
2022-11-30T10:41:44.810Z,997.31
2022-11-30T10:42:44.830Z,997.32
2022-11-30T10:43:44.766Z,997.33
2022-11-30T10:44:45.142Z,997.34
2022-11-30T10:45:44.736Z,997.29
2022-11-30T10:46:45.055Z,997.31
2022-11-30T10:47:44.686Z,997.34
2022-11-30T10:48:44.727Z,997.31
2022-11-30T10:49:44.658Z,997.31
2022-11-30T10:50:44.655Z,997.28
2022-11-30T10:51:44.639Z,997.30
2022-11-30T10:52:44.631Z,997.28
2022-11-30T10:53:44.837Z,997.31
2022-11-30T10:54:44.974Z,997.28
2022-11-30T10:55:44.616Z,997.28
2022-11-30T10:56:44.568Z,997.23
2022-11-30T10:57:44.562Z,997.25
2022-11-30T10:58:44.620Z,997.23
2022-11-30T10:59:44.974Z,997.19
2022-11-30T11:00:44.521Z,997.23
2022-11-30T11:01:44.712Z,997.24
2022-11-30T11:02:44.556Z,997.25
2022-11-30T11:03:44.515Z,997.22
2022-11-30T11:04:44.703Z,997.26
2022-11-30T11:05:44.662Z,997.28
2022-11-30T11:06:44.517Z,997.31
2022-11-30T11:07:44.516Z,997.29
2022-11-30T11:08:44.471Z,997.28
2022-11-30T11:09:44.434Z,997.27
2022-11-30T11:10:44.457Z,997.29
2022-11-30T11:11:44.616Z,997.29
2022-11-30T11:12:44.388Z,997.28
2022-11-30T11:13:44.369Z,997.28
2022-11-30T11:14:44.371Z,997.26
2022-11-30T11:15:44.439Z,997.28
2022-11-30T11:16:44.343Z,997.27
2022-11-30T11:17:44.352Z,997.22
2022-11-30T11:18:44.330Z,997.28
2022-11-30T11:19:44.313Z,997.28
2022-11-30T11:20:44.312Z,997.28
2022-11-30T11:21:44.298Z,997.29
2022-11-30T11:22:44.266Z,997.23
2022-11-30T11:23:44.271Z,997.29
2022-11-30T11:24:44.245Z,997.27
2022-11-30T11:25:44.442Z,997.24
2022-11-30T11:26:44.303Z,997.27
2022-11-30T11:27:45.106Z,997.24
2022-11-30T11:28:44.248Z,997.25
2022-11-30T11:29:44.214Z,997.24
2022-11-30T11:30:44.200Z,997.28
2022-11-30T11:31:44.210Z,997.31
2022-11-30T11:32:44.162Z,997.30
2022-11-30T11:33:44.362Z,997.28
2022-11-30T11:34:47.978Z,997.32
2022-11-30T11:35:44.109Z,997.30
2022-11-30T11:36:44.125Z,997.30
2022-11-30T11:37:44.104Z,997.34
2022-11-30T11:38:44.077Z,997.31
2022-11-30T11:39:44.080Z,997.30
2022-11-30T11:40:44.053Z,997.32
2022-11-30T11:41:44.062Z,997.32
2022-11-30T11:42:44.235Z,997.30
2022-11-30T11:43:44.032Z,997.27
2022-11-30T11:44:44.004Z,997.28
2022-11-30T11:45:44.002Z,997.26
2022-11-30T11:46:44.050Z,997.24
2022-11-30T11:47:43.978Z,997.23
2022-11-30T11:48:43.982Z,997.24
2022-11-30T11:49:43.978Z,997.21
2022-11-30T11:51:06.280Z,997.19
2022-11-30T11:51:43.984Z,997.21
2022-11-30T11:52:43.941Z,997.20
2022-11-30T11:53:48.726Z,997.18
2022-11-30T11:54:43.885Z,997.19
2022-11-30T11:55:43.915Z,997.19
2022-11-30T11:57:43.910Z,997.20
2022-11-30T11:58:43.856Z,997.16
2022-11-30T11:59:43.838Z,997.16
2022-11-30T12:00:43.813Z,997.20
2022-11-30T12:01:43.811Z,997.13
2022-11-30T12:02:43.839Z,997.19
2022-11-30T12:03:43.776Z,997.13
2022-11-30T12:04:43.830Z,997.15
2022-11-30T12:05:43.757Z,997.15
2022-11-30T12:06:43.755Z,997.13
2022-11-30T12:07:43.827Z,997.13
2022-11-30T12:09:43.972Z,997.13
2022-11-30T12:10:51.798Z,997.15
2022-11-30T12:11:43.688Z,997.15
2022-11-30T12:12:48.429Z,997.11
2022-11-30T12:13:43.669Z,997.13
2022-11-30T12:14:43.644Z,997.10
2022-11-30T12:15:43.666Z,997.14
2022-11-30T12:16:43.846Z,997.09
2022-11-30T12:17:43.622Z,997.09
2022-11-30T12:18:43.615Z,997.11
2022-11-30T12:19:43.602Z,997.15
2022-11-30T12:20:43.589Z,997.09
2022-11-30T12:22:43.560Z,997.15
2022-11-30T12:23:43.546Z,997.13
2022-11-30T12:24:43.526Z,997.14
2022-11-30T12:25:43.582Z,997.11
2022-11-30T12:26:43.526Z,997.12
2022-11-30T12:27:45.196Z,997.13
2022-11-30T12:28:43.514Z,997.14
2022-11-30T12:29:43.472Z,997.16
2022-11-30T12:30:43.457Z,997.14
2022-11-30T12:31:43.662Z,997.16
2022-11-30T12:32:43.632Z,997.20
2022-11-30T12:33:43.420Z,997.15
2022-11-30T12:34:43.428Z,997.16
2022-11-30T12:35:43.393Z,997.19
2022-11-30T12:36:43.387Z,997.18
2022-11-30T12:37:47.451Z,997.16
2022-11-30T12:38:43.358Z,997.21
2022-11-30T12:39:43.350Z,997.19
2022-11-30T12:40:43.338Z,997.15
2022-11-30T12:41:43.347Z,997.23
2022-11-30T12:42:43.318Z,997.19
2022-11-30T12:43:43.324Z,997.21
2022-11-30T12:44:43.290Z,997.23
2022-11-30T12:45:43.277Z,997.26
2022-11-30T12:46:43.332Z,997.27
2022-11-30T12:47:43.259Z,997.25
2022-11-30T12:48:43.330Z,997.26
2022-11-30T12:49:43.237Z,997.24
2022-11-30T12:50:43.217Z,997.27
2022-11-30T12:51:43.210Z,997.30
2022-11-30T12:52:43.194Z,997.31
2022-11-30T12:53:43.190Z,997.31
2022-11-30T12:54:43.170Z,997.29
2022-11-30T12:55:43.166Z,997.35
2022-11-30T12:56:46.136Z,997.30
2022-11-30T12:57:43.159Z,997.32
2022-11-30T12:58:43.127Z,997.31
2022-11-30T12:59:43.237Z,997.31
2022-11-30T13:00:43.131Z,997.33
2022-11-30T13:01:43.180Z,997.32
2022-11-30T13:02:43.086Z,997.34
2022-11-30T13:03:43.066Z,997.29
2022-11-30T13:06:43.034Z,997.29
2022-11-30T13:07:43.146Z,997.26
2022-11-30T13:08:43.034Z,997.25